Time;durP1;ratioP1;P1;durP2;ratioP2;P2;SDS_P1;SDS_P2;PMS_P1;PMS_P2;Temp;Humidity;BMP_temperature;BMP_pressure;BME280_temperature;BME280_humidity;BME280_pressure;Samples;Min_cycle;Max_cycle;Signal;HPM_P1;HPM_P2
2020/12/31 00:01:24;;;;;;;;;;;;;;;8.77;61.88;99545.78;4889098;29;19936;-73
2020/12/31 00:03:52;;;;;;;;;;;;;;;8.80;61.93;99545.63;4904172;29;20003;-73
2020/12/31 00:06:19;;;;;;;;;;;;;;;8.85;61.82;99549.88;4903959;29;19932;-73
2020/12/31 00:08:46;;;;;;;;;;;;;;;8.84;61.59;99549.03;4902952;29;19957;-73
2020/12/31 00:11:13;;;;;;;;;;;;;;;8.85;61.53;99550.75;4899118;29;19935;-73
2020/12/31 00:13:41;;;;;;;;;;;;;;;8.90;61.68;99553.19;4901424;29;19942;-73
2020/12/31 00:16:07;;;;;;;;;;;;;;;8.91;61.83;99557.53;4903490;29;19928;-73
2020/12/31 00:18:35;;;;;;;;;;;;;;;8.92;61.42;99549.56;4902185;29;20053;-73
2020/12/31 00:21:03;;;;;;;;;;;;;;;8.94;61.66;99560.06;4888405;29;19928;-73
2020/12/31 00:23:29;;;;;;;;;;;;;;;8.95;61.64;99559.13;4902160;29;20004;-73
2020/12/31 00:25:57;;;;;;;;;;;;;;;8.96;62.00;99560.88;4897051;29;19996;-73
2020/12/31 00:28:24;;;;;;;;;;;;;;;8.97;61.57;99554.69;4897532;29;19927;-73
2020/12/31 00:30:51;;;;;;;;;;;;;;;8.95;61.89;99545.94;4900770;29;19942;-73
2020/12/31 00:33:19;;;;;;;;;;;;;;;8.99;61.37;99549.34;4887307;29;19935;-73
2020/12/31 00:35:50;;;;;;;;;;;;;;;8.95;61.58;99552.06;4900389;29;19935;-73
2020/12/31 00:38:17;;;;;;;;;;;;;;;8.97;61.60;99549.41;4900783;29;19946;-73
2020/12/31 00:40:44;;;;;;;;;;;;;;;8.99;61.52;99551.97;4898614;29;19937;-73
2020/12/31 00:43:11;;;;;;;;;;;;;;;8.99;61.38;99552.81;4888127;29;19934;-73
2020/12/31 00:45:38;;;;;;;;;;;;;;;9.00;61.55;99546.63;4891099;29;19927;-73
2020/12/31 00:48:05;;;;;;;;;;;;;;;8.99;61.50;99562.53;4921771;29;19966;-73
2020/12/31 00:50:32;;;;;;;;;;;;;;;8.97;61.50;99554.69;4920801;29;19982;-73
2020/12/31 00:53:00;;;;;;;;;;;;;;;8.96;61.61;99555.59;4902629;29;20393;-73
2020/12/31 00:55:28;;;;;;;;;;;;;;;8.97;61.80;99562.59;4901283;29;20412;-73
2020/12/31 00:57:55;;;;;;;;;;;;;;;8.96;61.50;99563.50;4899158;29;19974;-73
2020/12/31 01:00:23;;;;;;;;;;;;;;;8.96;61.79;99555.59;4921934;29;19946;-73
2020/12/31 01:03:06;;;;;;;;;;;;;;;8.96;61.95;99561.72;4905829;29;19927;-73
2020/12/31 01:05:33;;;;;;;;;;;;;;;8.94;61.78;99550.38;4919863;29;19937;-73
2020/12/31 01:08:01;;;;;;;;;;;;;;;8.92;61.56;99565.41;4913442;29;19934;-73
2020/12/31 01:10:29;;;;;;;;;;;;;;;8.93;61.78;99556.56;4919514;29;19931;-73
2020/12/31 01:12:55;;;;;;;;;;;;;;;8.95;61.56;99561.78;4923244;29;19935;-73
2020/12/31 01:15:24;;;;;;;;;;;;;;;8.95;61.77;99567.06;4912961;29;20290;-73
2020/12/31 01:17:51;;;;;;;;;;;;;;;8.92;61.68;99564.53;4906277;29;20405;-73
2020/12/31 01:20:18;;;;;;;;;;;;;;;8.91;61.59;99554.91;4913530;29;19938;-73
2020/12/31 01:22:44;;;;;;;;;;;;;;;8.90;62.23;99563.72;4912322;29;19932;-73
2020/12/31 01:25:12;;;;;;;;;;;;;;;8.89;61.85;99573.44;4921221;29;20026;-73
2020/12/31 01:27:40;;;;;;;;;;;;;;;8.88;61.67;99563.81;4904470;29;19935;-73
2020/12/31 01:30:07;;;;;;;;;;;;;;;8.86;61.61;99562.16;4920530;29;19935;-73
2020/12/31 01:32:34;;;;;;;;;;;;;;;8.87;62.12;99569.16;4917740;29;19962;-72
2020/12/31 01:35:01;;;;;;;;;;;;;;;8.84;61.67;99571.88;4916826;29;20034;-73
2020/12/31 01:37:28;;;;;;;;;;;;;;;8.84;62.08;99572.75;4899944;29;19938;-73
2020/12/31 01:39:55;;;;;;;;;;;;;;;8.84;62.04;99575.41;4922988;29;19938;-73
2020/12/31 01:42:23;;;;;;;;;;;;;;;8.83;61.97;99570.19;4923235;29;19946;-73
2020/12/31 01:44:50;;;;;;;;;;;;;;;8.81;62.07;99575.50;4907184;29;19931;-72
2020/12/31 01:47:17;;;;;;;;;;;;;;;8.81;62.24;99583.41;4919787;29;19972;-73
2020/12/31 01:49:46;;;;;;;;;;;;;;;8.82;61.67;99585.13;4899551;29;19931;-73
2020/12/31 01:52:14;;;;;;;;;;;;;;;8.81;61.55;99575.50;4918568;29;20521;-72
2020/12/31 01:54:44;;;;;;;;;;;;;;;8.80;62.19;99581.72;4920522;29;19931;-73
2020/12/31 01:57:11;;;;;;;;;;;;;;;8.80;61.65;99584.34;4918607;29;19931;-73
2020/12/31 01:59:38;;;;;;;;;;;;;;;8.78;62.31;99580.91;4921698;29;19934;-73
2020/12/31 02:02:07;;;;;;;;;;;;;;;8.76;61.88;99580.97;4914026;29;19950;-73
2020/12/31 02:04:35;;;;;;;;;;;;;;;8.77;62.23;99579.16;4900618;29;19983;-73
2020/12/31 02:07:02;;;;;;;;;;;;;;;8.77;61.97;99581.81;4920810;29;19937;-73
2020/12/31 02:09:29;;;;;;;;;;;;;;;8.76;62.13;99582.72;4923194;29;19927;-73
2020/12/31 02:12:00;;;;;;;;;;;;;;;8.74;61.80;99576.66;4918618;29;19927;-73
2020/12/31 02:14:27;;;;;;;;;;;;;;;8.74;62.53;99582.78;4920841;29;20616;-73
2020/12/31 02:16:55;;;;;;;;;;;;;;;8.71;62.24;99592.63;4913941;29;19935;-73
2020/12/31 02:19:22;;;;;;;;;;;;;;;8.70;61.98;99583.81;4909093;29;19931;-73
2020/12/31 02:21:50;;;;;;;;;;;;;;;8.69;62.66;99584.72;4901980;29;20355;-73
2020/12/31 02:24:18;;;;;;;;;;;;;;;8.70;62.66;99580.34;4920258;29;19937;-73
2020/12/31 02:26:45;;;;;;;;;;;;;;;8.69;62.78;99589.16;4916413;29;19931;-73
2020/12/31 02:29:13;;;;;;;;;;;;;;;8.66;62.66;99587.50;4921360;29;19934;-73
2020/12/31 02:31:41;;;;;;;;;;;;;;;8.66;62.32;99592.78;4915416;29;19942;-73
2020/12/31 02:34:09;;;;;;;;;;;;;;;8.64;62.91;99600.75;4915062;29;20002;-73
2020/12/31 02:36:38;;;;;;;;;;;;;;;8.63;62.69;99595.53;4916236;29;20282;-73
2020/12/31 02:39:07;;;;;;;;;;;;;;;8.64;62.62;99591.97;4915484;29;19927;-72
2020/12/31 02:41:34;;;;;;;;;;;;;;;8.64;62.19;99606.03;4917548;29;19953;-73
2020/12/31 02:44:01;;;;;;;;;;;;;;;8.61;62.74;99595.56;4920046;29;19931;-73
2020/12/31 02:46:27;;;;;;;;;;;;;;;8.62;63.07;99592.03;4914906;29;19964;-73
2020/12/31 02:48:54;;;;;;;;;;;;;;;8.61;62.73;99587.66;4920579;29;19999;-72
2020/12/31 02:51:21;;;;;;;;;;;;;;;8.60;62.27;99595.63;4916759;29;19935;-73
2020/12/31 02:53:48;;;;;;;;;;;;;;;8.59;63.15;99592.16;4923595;29;19933;-72
2020/12/31 02:56:18;;;;;;;;;;;;;;;8.57;63.17;99590.47;4915859;29;19953;-73
2020/12/31 02:58:45;;;;;;;;;;;;;;;8.56;62.84;99589.63;4921851;29;19955;-73
2020/12/31 03:01:12;;;;;;;;;;;;;;;8.57;62.69;99591.34;4917677;29;19927;-73
2020/12/31 03:03:39;;;;;;;;;;;;;;;8.56;63.06;99588.75;4923700;29;20018;-73
2020/12/31 03:06:07;;;;;;;;;;;;;;;8.56;62.85;99594.91;4910337;29;19931;-73
2020/12/31 03:08:34;;;;;;;;;;;;;;;8.58;62.84;99579.88;4923284;29;19970;-73
2020/12/31 03:11:01;;;;;;;;;;;;;;;8.60;63.08;99593.88;4919099;29;19954;-73
2020/12/31 03:13:29;;;;;;;;;;;;;;;8.64;62.50;99587.56;4903672;29;20341;-73
2020/12/31 03:15:56;;;;;;;;;;;;;;;8.66;62.91;99587.50;4917489;29;19938;-73
2020/12/31 03:18:23;;;;;;;;;;;;;;;8.69;62.93;99581.25;4922347;29;19927;-73
2020/12/31 03:20:50;;;;;;;;;;;;;;;8.72;62.63;99584.63;4922334;29;20022;-73
2020/12/31 03:23:18;;;;;;;;;;;;;;;8.75;63.04;99586.31;4915781;29;19966;-73
2020/12/31 03:25:45;;;;;;;;;;;;;;;8.76;62.62;99582.72;4911955;29;19927;-73
2020/12/31 03:28:13;;;;;;;;;;;;;;;8.80;62.25;99590.47;4909323;29;20434;-73
2020/12/31 03:30:42;;;;;;;;;;;;;;;8.84;62.15;99580.66;4913434;29;19931;-73
2020/12/31 03:33:12;;;;;;;;;;;;;;;8.86;62.60;99583.25;4913569;29;19963;-73
2020/12/31 03:35:40;;;;;;;;;;;;;;;8.88;62.76;99586.69;4915088;29;19931;-73
2020/12/31 03:38:07;;;;;;;;;;;;;;;8.90;61.73;99587.47;4914173;29;19937;-73
2020/12/31 03:40:34;;;;;;;;;;;;;;;8.95;62.03;99588.16;4916333;29;20066;-73
2020/12/31 03:43:02;;;;;;;;;;;;;;;8.92;61.84;99578.59;4918443;29;19927;-73
2020/12/31 03:45:29;;;;;;;;;;;;;;;8.91;62.26;99584.78;4922071;29;19938;-73
2020/12/31 03:47:56;;;;;;;;;;;;;;;8.93;61.98;99582.94;4922871;29;19942;-73
2020/12/31 03:50:23;;;;;;;;;;;;;;;8.96;62.18;99584.59;4925188;29;19927;-73
2020/12/31 03:52:50;;;;;;;;;;;;;;;8.97;61.96;99584.53;4905887;29;20501;-73
2020/12/31 03:55:17;;;;;;;;;;;;;;;8.95;62.40;99578.44;4919895;29;19956;-73
2020/12/31 03:57:44;;;;;;;;;;;;;;;8.97;61.61;99583.69;4916517;29;19927;-73
2020/12/31 04:00:12;;;;;;;;;;;;;;;8.99;61.70;99584.47;4919815;29;19927;-73
2020/12/31 04:02:39;;;;;;;;;;;;;;;8.96;62.27;99587.25;4921456;29;19935;-73
2020/12/31 04:05:08;;;;;;;;;;;;;;;8.96;62.20;99587.25;4924536;29;19927;-73
2020/12/31 04:07:35;;;;;;;;;;;;;;;8.95;62.34;99588.16;4921619;29;19931;-73
2020/12/31 04:10:03;;;;;;;;;;;;;;;8.94;62.01;99584.66;4919382;29;19931;-73
2020/12/31 04:12:30;;;;;;;;;;;;;;;8.95;61.97;99586.38;4917377;29;19991;-73
2020/12/31 04:14:57;;;;;;;;;;;;;;;8.95;62.27;99590.78;4922425;29;19939;-73
2020/12/31 04:17:24;;;;;;;;;;;;;;;8.95;61.90;99589.00;4920114;29;20377;-73
2020/12/31 04:19:51;;;;;;;;;;;;;;;8.95;62.01;99594.28;4916679;29;19928;-73
2020/12/31 04:22:19;;;;;;;;;;;;;;;8.92;62.11;99599.69;4921573;29;20329;-73
2020/12/31 04:24:46;;;;;;;;;;;;;;;8.92;62.42;99593.56;4913619;29;19930;-73
2020/12/31 04:27:13;;;;;;;;;;;;;;;8.91;62.29;99591.84;4925015;29;20362;-73
2020/12/31 04:29:40;;;;;;;;;;;;;;;8.90;62.32;99601.50;4924336;29;19931;-73
2020/12/31 04:32:07;;;;;;;;;;;;;;;8.90;62.04;99596.22;4919800;29;19995;-73
2020/12/31 04:34:34;;;;;;;;;;;;;;;8.89;62.68;99593.66;4920194;29;19937;-73
2020/12/31 04:37:01;;;;;;;;;;;;;;;8.88;61.97;99599.88;4919646;29;19931;-73
2020/12/31 04:39:29;;;;;;;;;;;;;;;8.89;62.01;99596.28;4915508;29;19938;-73
2020/12/31 04:41:58;;;;;;;;;;;;;;;8.87;62.69;99598.16;4922343;29;19935;-73
2020/12/31 04:44:26;;;;;;;;;;;;;;;8.87;62.50;99606.91;4921526;29;19941;-73
2020/12/31 04:46:54;;;;;;;;;;;;;;;8.86;61.91;99604.34;4921304;29;19939;-73
2020/12/31 04:49:23;;;;;;;;;;;;;;;8.86;62.37;99606.97;4922112;29;19935;-73
2020/12/31 04:51:53;;;;;;;;;;;;;;;8.86;62.12;99614.88;4911428;29;19935;-73
2020/12/31 04:54:20;;;;;;;;;;;;;;;8.85;62.42;99611.41;4916639;29;19935;-73
2020/12/31 04:56:48;;;;;;;;;;;;;;;8.85;62.07;99618.44;4922985;29;19933;-73
2020/12/31 04:59:15;;;;;;;;;;;;;;;8.84;62.09;99611.44;4921602;29;19927;-73
2020/12/31 05:01:44;;;;;;;;;;;;;;;8.82;62.65;99613.28;4919063;29;19943;-73
2020/12/31 05:04:12;;;;;;;;;;;;;;;8.82;62.33;99618.56;4919978;29;19931;-73
2020/12/31 05:06:39;;;;;;;;;;;;;;;8.82;62.17;99621.19;4914170;29;20029;-73
2020/12/31 05:09:16;;;;;;;;;;;;;;;8.79;62.73;99620.38;4920548;29;19931;-73
2020/12/31 05:11:46;;;;;;;;;;;;;;;8.79;61.84;99620.38;4915934;29;19931;-73
2020/12/31 05:14:13;;;;;;;;;;;;;;;8.79;62.49;99623.03;4923152;29;19931;-73
2020/12/31 05:16:40;;;;;;;;;;;;;;;8.77;62.69;99627.50;4922193;29;19931;-73
2020/12/31 05:19:21;;;;;;;;;;;;;;;8.78;62.06;99628.38;4897599;29;19931;-73
2020/12/31 05:21:48;;;;;;;;;;;;;;;8.76;62.51;99631.06;4914528;29;19990;-73
2020/12/31 05:24:15;;;;;;;;;;;;;;;8.74;62.39;99640.78;4919891;29;19998;-73
2020/12/31 05:26:42;;;;;;;;;;;;;;;8.74;62.23;99643.44;4914123;29;19967;-73
2020/12/31 05:29:09;;;;;;;;;;;;;;;8.73;62.50;99646.13;4903357;29;19995;-73
2020/12/31 05:31:52;;;;;;;;;;;;;;;8.71;62.86;99646.19;4900631;29;19957;-73
2020/12/31 05:34:29;;;;;;;;;;;;;;;8.69;62.62;99653.28;4910370;29;19935;-73
2020/12/31 05:37:12;;;;;;;;;;;;;;;8.69;62.17;99650.66;4914920;29;19931;-72
2020/12/31 05:39:53;;;;;;;;;;;;;;;8.67;62.75;99652.50;4913181;29;19935;-73
2020/12/31 05:42:20;;;;;;;;;;;;;;;8.68;62.39;99661.25;4917380;29;19931;-73
2020/12/31 05:44:58;;;;;;;;;;;;;;;8.70;62.26;99662.94;4924182;29;20720;-73
2020/12/31 05:47:26;;;;;;;;;;;;;;;8.70;62.58;99659.44;4911250;29;19931;-73
2020/12/31 05:49:53;;;;;;;;;;;;;;;8.72;62.69;99663.75;4916642;29;19928;-73
2020/12/31 05:52:32;;;;;;;;;;;;;;;8.72;62.49;99669.00;4900747;29;20009;-73
2020/12/31 05:55:01;;;;;;;;;;;;;;;8.77;62.55;99666.19;4921355;29;19931;-73
2020/12/31 05:57:41;;;;;;;;;;;;;;;8.78;62.68;99667.91;4904180;29;19931;-73
2020/12/31 06:00:08;;;;;;;;;;;;;;;8.82;62.15;99676.59;4919817;29;19935;-73
2020/12/31 06:02:37;;;;;;;;;;;;;;;8.86;62.41;99673.75;4913847;29;20416;-73
2020/12/31 06:05:09;;;;;;;;;;;;;;;8.89;62.19;99670.16;4914360;29;20564;-73
2020/12/31 06:07:41;;;;;;;;;;;;;;;8.90;62.21;99678.00;4922287;29;19955;-73
2020/12/31 06:10:09;;;;;;;;;;;;;;;8.93;62.11;99680.53;4916661;29;20018;-73
2020/12/31 06:12:43;;;;;;;;;;;;;;;8.97;62.02;99674.22;4920410;29;19931;-73
2020/12/31 06:15:10;;;;;;;;;;;;;;;8.97;61.41;99674.22;4910997;29;20428;-73
2020/12/31 06:17:43;;;;;;;;;;;;;;;9.00;61.68;99681.16;4916262;29;19934;-73
2020/12/31 06:20:11;;;;;;;;;;;;;;;9.03;61.61;99683.69;4901323;29;19935;-73
2020/12/31 06:23:06;;;;;;;;;;;;;;;9.05;61.44;99688.88;4916210;29;19935;-73
2020/12/31 06:25:37;;;;;;;;;;;;;;;9.05;61.77;99694.16;4907668;29;19931;-73
2020/12/31 06:28:16;;;;;;;;;;;;;;;9.05;62.08;99696.81;4924026;29;19927;-73
2020/12/31 06:30:43;;;;;;;;;;;;;;;9.06;61.83;99690.63;4919457;29;19927;-72
2020/12/31 06:33:12;;;;;;;;;;;;;;;9.06;61.70;99704.69;4917113;29;19963;-73
2020/12/31 06:35:42;;;;;;;;;;;;;;;9.06;62.05;99707.31;4907391;29;20055;-73
2020/12/31 06:38:09;;;;;;;;;;;;;;;9.07;61.76;99709.03;4916073;29;19943;-73
2020/12/31 06:40:37;;;;;;;;;;;;;;;9.08;61.90;99710.75;4923700;29;19931;-73
2020/12/31 06:43:09;;;;;;;;;;;;;;;9.08;61.74;99705.47;4917205;29;20377;-72
2020/12/31 06:45:40;;;;;;;;;;;;;;;9.08;61.52;99712.53;4918220;29;19973;-73
2020/12/31 06:48:26;;;;;;;;;;;;;;;9.06;61.63;99714.34;4907256;29;19959;-73
2020/12/31 06:50:58;;;;;;;;;;;;;;;9.07;61.26;99716.94;4925057;29;20050;-72
2020/12/31 06:53:31;;;;;;;;;;;;;;;9.04;62.21;99724.97;4919974;29;20007;-73
2020/12/31 06:55:58;;;;;;;;;;;;;;;9.04;62.23;99722.34;4917614;29;20033;-73
2020/12/31 06:58:26;;;;;;;;;;;;;;;9.05;61.70;99713.50;4915196;29;19927;-73
2020/12/31 07:00:53;;;;;;;;;;;;;;;9.02;61.39;99720.66;4920506;29;20056;-72
2020/12/31 07:03:39;;;;;;;;;;;;;;;9.03;62.11;99731.16;4923417;29;19935;-72
2020/12/31 07:06:25;;;;;;;;;;;;;;;9.03;61.90;99727.69;4923905;29;19927;-73
2020/12/31 07:08:54;;;;;;;;;;;;;;;9.01;61.66;99733.00;4921058;29;19931;-73
2020/12/31 07:11:31;;;;;;;;;;;;;;;9.01;61.51;99730.38;4919988;29;19938;-72
2020/12/31 07:13:58;;;;;;;;;;;;;;;9.00;61.77;99736.56;4916897;29;19945;-73
2020/12/31 07:16:39;;;;;;;;;;;;;;;8.99;62.05;99736.63;4920783;29;19930;-72
2020/12/31 07:19:06;;;;;;;;;;;;;;;8.97;62.05;99741.97;4923795;29;19934;-72
2020/12/31 07:21:35;;;;;;;;;;;;;;;8.98;61.65;99741.03;4925033;29;20401;-72
2020/12/31 07:24:17;;;;;;;;;;;;;;;8.96;61.53;99743.72;4916954;29;19954;-72
2020/12/31 07:26:46;;;;;;;;;;;;;;;8.95;61.94;99743.78;4916720;29;20156;-72
2020/12/31 07:29:13;;;;;;;;;;;;;;;8.95;62.23;99747.25;4922889;29;19934;-72
2020/12/31 07:31:40;;;;;;;;;;;;;;;8.94;61.76;99745.56;4923988;29;19931;-73
2020/12/31 07:34:19;;;;;;;;;;;;;;;8.95;61.79;99754.34;4904980;29;19931;-72
2020/12/31 07:36:55;;;;;;;;;;;;;;;8.94;61.95;99749.97;4920172;29;19931;-72
2020/12/31 07:39:22;;;;;;;;;;;;;;;8.96;61.71;99758.69;4920019;29;19927;-72
2020/12/31 07:41:50;;;;;;;;;;;;;;;8.95;61.71;99759.59;4907801;29;19926;-72
2020/12/31 07:44:17;;;;;;;;;;;;;;;8.94;61.89;99758.75;4930950;29;20283;-72
2020/12/31 07:46:44;;;;;;;;;;;;;;;8.94;61.61;99763.16;4920676;29;19931;-72
2020/12/31 07:49:11;;;;;;;;;;;;;;;8.90;62.02;99765.03;4924536;29;19938;-72
2020/12/31 07:51:38;;;;;;;;;;;;;;;8.91;62.03;99769.41;4905768;29;19938;-72
2020/12/31 07:54:05;;;;;;;;;;;;;;;8.91;61.51;99779.09;4920573;29;20393;-72
2020/12/31 07:56:33;;;;;;;;;;;;;;;8.92;61.87;99767.66;4919556;29;19931;-72
2020/12/31 07:59:04;;;;;;;;;;;;;;;8.90;61.54;99772.94;4923253;29;19927;-72
2020/12/31 08:01:31;;;;;;;;;;;;;;;8.91;61.46;99774.69;4919507;29;19990;-72
2020/12/31 08:04:08;;;;;;;;;;;;;;;8.95;61.52;99786.00;4918766;29;19959;-72
2020/12/31 08:06:35;;;;;;;;;;;;;;;8.97;61.38;99778.91;4920036;29;20389;-72
2020/12/31 08:09:05;;;;;;;;;;;;;;;8.96;61.94;99788.56;4918945;29;19942;-72
2020/12/31 08:11:32;;;;;;;;;;;;;;;8.96;61.50;99785.06;4915389;29;19937;-73
2020/12/31 08:14:03;;;;;;;;;;;;;;;8.95;61.05;99789.47;4906919;29;20286;-72
2020/12/31 08:16:30;;;;;;;;;;;;;;;8.97;61.74;99795.56;4917262;29;19927;-71
2020/12/31 08:18:57;;;;;;;;;;;;;;;8.97;61.43;99792.09;4921380;29;19956;-72
2020/12/31 08:21:25;;;;;;;;;;;;;;;9.01;60.88;99795.44;4919137;29;20547;-72
2020/12/31 08:23:57;;;;;;;;;;;;;;;8.96;61.39;99796.47;4916721;29;20022;-72
2020/12/31 08:26:25;;;;;;;;;;;;;;;8.99;61.00;99803.41;4918363;29;19927;-73
2020/12/31 08:28:52;;;;;;;;;;;;;;;8.99;61.00;99808.69;4915960;29;19926;-75
2020/12/31 08:31:24;;;;;;;;;;;;;;;8.96;61.03;99814.09;4918764;29;19939;-74
2020/12/31 08:33:58;;;;;;;;;;;;;;;8.97;60.55;99814.03;4904741;29;20468;-73
2020/12/31 08:36:27;;;;;;;;;;;;;;;8.96;60.98;99822.00;4919465;29;19934;-75
2020/12/31 08:39:05;;;;;;;;;;;;;;;8.97;60.87;99813.19;4915415;29;19928;-72
2020/12/31 08:41:35;;;;;;;;;;;;;;;8.99;61.07;99818.41;4917636;29;19983;-74
2020/12/31 08:44:11;;;;;;;;;;;;;;;9.02;60.93;99820.91;4924173;29;19927;-74
2020/12/31 08:46:39;;;;;;;;;;;;;;;9.05;61.23;99828.72;4918015;29;19954;-75
2020/12/31 08:49:07;;;;;;;;;;;;;;;9.08;60.64;99825.97;4903383;29;19935;-74
2020/12/31 08:51:34;;;;;;;;;;;;;;;9.14;61.07;99836.31;4911861;29;20080;-73
2020/12/31 08:54:03;;;;;;;;;;;;;;;9.16;60.62;99839.75;4897537;29;19931;-75
2020/12/31 08:56:30;;;;;;;;;;;;;;;9.25;60.09;99842.06;4903967;29;19948;-76
2020/12/31 08:59:07;;;;;;;;;;;;;;;9.28;59.61;99843.72;4921621;29;19983;-74
2020/12/31 09:01:34;;;;;;;;;;;;;;;9.34;59.78;99845.28;4903848;29;20416;-75
2020/12/31 09:04:09;;;;;;;;;;;;;;;9.37;59.75;99851.31;4920268;29;20019;-74
2020/12/31 09:06:36;;;;;;;;;;;;;;;9.37;59.67;99850.47;4912219;29;19935;-74
2020/12/31 09:09:03;;;;;;;;;;;;;;;9.38;60.03;99860.09;4904138;29;19931;-74
2020/12/31 09:11:31;;;;;;;;;;;;;;;9.37;59.92;99859.22;4922954;29;20868;-74
2020/12/31 09:14:06;;;;;;;;;;;;;;;9.41;59.65;99860.84;4911792;29;19931;-73
2020/12/31 09:16:33;;;;;;;;;;;;;;;9.47;59.41;99870.31;4904154;29;19938;-73
2020/12/31 09:19:02;;;;;;;;;;;;;;;9.51;59.80;99871.94;4922642;29;19938;-73
2020/12/31 09:21:30;;;;;;;;;;;;;;;9.54;59.10;99870.97;4915563;29;19927;-74
2020/12/31 09:23:57;;;;;;;;;;;;;;;9.60;59.26;99870.69;4921535;29;19964;-73
2020/12/31 09:26:25;;;;;;;;;;;;;;;9.67;58.85;99871.38;4919973;29;20003;-74
2020/12/31 09:28:52;;;;;;;;;;;;;;;9.72;58.75;99869.41;4903751;29;19927;-73
2020/12/31 09:31:22;;;;;;;;;;;;;;;9.75;58.66;99869.28;4918166;29;19927;-74
2020/12/31 09:33:50;;;;;;;;;;;;;;;9.74;59.35;99873.69;4904362;29;19931;-74
2020/12/31 09:36:24;;;;;;;;;;;;;;;9.75;58.89;99875.41;4907402;29;19927;-74
2020/12/31 09:38:52;;;;;;;;;;;;;;;9.77;58.83;99885.91;4916484;29;20015;-73
2020/12/31 09:41:20;;;;;;;;;;;;;;;9.83;59.04;99883.06;4914106;29;19935;-75
2020/12/31 09:43:50;;;;;;;;;;;;;;;9.85;58.40;99886.50;4917227;29;19935;-75
2020/12/31 09:46:21;;;;;;;;;;;;;;;9.87;58.98;99894.38;4894738;29;19945;-75
2020/12/31 09:48:53;;;;;;;;;;;;;;;9.85;58.70;99897.06;4888915;29;19931;-77
2020/12/31 09:52:05;;;;;;;;;;;;;;;9.88;58.47;99896.09;4895322;29;19967;-78
2020/12/31 09:54:36;;;;;;;;;;;;;;;9.87;58.78;99891.72;4901874;29;20319;-77
2020/12/31 09:57:06;;;;;;;;;;;;;;;9.86;58.48;99901.44;4884907;29;20635;-77
2020/12/31 09:59:38;;;;;;;;;;;;;;;9.85;58.86;99904.13;4894821;29;20027;-75
2020/12/31 10:02:36;;;;;;;;;;;;;;;9.81;58.59;99903.41;4895879;29;19938;-77
2020/12/31 10:05:10;;;;;;;;;;;;;;;9.80;59.15;99896.38;4895941;29;19983;-76
2020/12/31 10:07:42;;;;;;;;;;;;;;;9.80;59.01;99902.53;4903124;29;19952;-76
2020/12/31 10:10:09;;;;;;;;;;;;;;;9.83;59.02;99898.06;4897401;29;19927;-76
2020/12/31 10:12:37;;;;;;;;;;;;;;;9.87;58.34;99904.94;4886703;29;19928;-74
2020/12/31 10:15:07;;;;;;;;;;;;;;;9.87;58.37;99905.78;4886418;29;19935;-76
2020/12/31 10:17:34;;;;;;;;;;;;;;;9.90;58.46;99910.09;4876417;29;19931;-75
2020/12/31 10:20:05;;;;;;;;;;;;;;;9.90;58.30;99907.47;4884743;29;19956;-75
2020/12/31 10:22:32;;;;;;;;;;;;;;;9.92;58.21;99910.91;4901509;29;19964;-76
2020/12/31 10:24:59;;;;;;;;;;;;;;;9.89;58.10;99917.16;4897296;29;19937;-74
2020/12/31 10:27:27;;;;;;;;;;;;;;;9.90;58.19;99910.09;4906034;29;19962;-74
2020/12/31 10:29:54;;;;;;;;;;;;;;;9.86;58.55;99914.66;4884041;29;19943;-74
2020/12/31 10:32:21;;;;;;;;;;;;;;;9.84;58.83;99923.56;4899428;29;19999;-74
2020/12/31 10:34:48;;;;;;;;;;;;;;;9.86;58.26;99919.94;4886784;29;19961;-75
2020/12/31 10:37:15;;;;;;;;;;;;;;;9.79;58.53;99921.91;4898846;29;19955;-75
2020/12/31 10:39:42;;;;;;;;;;;;;;;9.75;59.11;99922.09;4886415;29;19932;-73
2020/12/31 10:42:09;;;;;;;;;;;;;;;9.72;59.16;99923.09;4900502;29;20013;-75
2020/12/31 10:44:37;;;;;;;;;;;;;;;9.76;58.98;99915.91;4896186;29;19927;-76
2020/12/31 10:47:03;;;;;;;;;;;;;;;9.71;59.25;99918.72;4897217;29;20722;-74
2020/12/31 10:49:30;;;;;;;;;;;;;;;9.72;59.12;99922.22;4919277;29;20281;-75
2020/12/31 10:51:57;;;;;;;;;;;;;;;9.77;58.46;99925.53;4891799;29;20006;-74
2020/12/31 10:54:24;;;;;;;;;;;;;;;9.76;58.97;99927.34;4901890;29;19931;-74
2020/12/31 10:56:51;;;;;;;;;;;;;;;9.77;58.97;99925.53;4918235;29;19964;-75
2020/12/31 10:59:18;;;;;;;;;;;;;;;9.79;58.51;99927.22;4898772;29;19958;-75
2020/12/31 11:01:50;;;;;;;;;;;;;;;9.78;58.85;99928.16;4917172;29;20476;-75
2020/12/31 11:04:17;;;;;;;;;;;;;;;9.76;58.30;99922.06;4918604;29;20026;-76
2020/12/31 11:06:44;;;;;;;;;;;;;;;9.77;58.85;99922.91;4917638;29;19939;-75
2020/12/31 11:09:11;;;;;;;;;;;;;;;9.75;58.91;99936.16;4901492;29;19938;-74
2020/12/31 11:11:39;;;;;;;;;;;;;;;9.71;58.97;99931.06;4916373;29;19935;-74
2020/12/31 11:14:06;;;;;;;;;;;;;;;9.67;58.90;99929.47;4919217;29;19956;-74
2020/12/31 11:16:33;;;;;;;;;;;;;;;9.69;58.42;99931.13;4912863;29;19938;-74
2020/12/31 11:19:03;;;;;;;;;;;;;;;9.64;59.08;99927.78;4912645;29;19934;-74
2020/12/31 11:21:31;;;;;;;;;;;;;;;9.65;59.10;99918.94;4905316;29;19959;-76
2020/12/31 11:23:59;;;;;;;;;;;;;;;9.64;59.09;99925.16;4908349;29;19959;-74
2020/12/31 11:26:26;;;;;;;;;;;;;;;9.63;59.22;99923.44;4902712;29;19935;-75
2020/12/31 11:28:53;;;;;;;;;;;;;;;9.59;59.06;99922.66;4913087;29;19979;-74
2020/12/31 11:31:24;;;;;;;;;;;;;;;9.56;59.14;99924.56;4922368;29;19999;-75
2020/12/31 11:33:51;;;;;;;;;;;;;;;9.51;59.36;99924.72;4906670;29;19970;-74
2020/12/31 11:36:20;;;;;;;;;;;;;;;9.51;59.45;99916.81;4906765;29;19931;-74
2020/12/31 11:38:48;;;;;;;;;;;;;;;9.50;59.44;99919.50;4918578;29;20025;-74
2020/12/31 11:41:15;;;;;;;;;;;;;;;9.50;59.45;99922.16;4913537;29;22174;-75
2020/12/31 11:43:42;;;;;;;;;;;;;;;9.49;59.25;99918.63;4912325;29;20026;-75
2020/12/31 11:46:10;;;;;;;;;;;;;;;9.49;59.12;99921.28;4918732;29;19931;-74
2020/12/31 11:48:36;;;;;;;;;;;;;;;9.49;59.32;99923.06;4921371;29;19935;-75
2020/12/31 11:51:04;;;;;;;;;;;;;;;9.49;59.00;99923.06;4903642;29;19938;-75
2020/12/31 11:53:32;;;;;;;;;;;;;;;9.53;59.04;99914.09;4915654;29;19939;-74
2020/12/31 11:56:01;;;;;;;;;;;;;;;9.52;59.12;99923.81;4895124;29;19983;-74
2020/12/31 11:58:28;;;;;;;;;;;;;;;9.55;58.94;99921.06;4918248;29;20417;-74
2020/12/31 12:00:57;;;;;;;;;;;;;;;9.58;58.25;99917.44;4910088;29;19938;-73
2020/12/31 12:03:23;;;;;;;;;;;;;;;9.58;58.65;99913.00;4919382;29;20508;-73
2020/12/31 12:05:50;;;;;;;;;;;;;;;9.64;58.63;99912.81;4921261;29;19936;-73
2020/12/31 12:08:17;;;;;;;;;;;;;;;9.64;58.42;99915.44;4916757;29;19931;-75
2020/12/31 12:10:47;;;;;;;;;;;;;;;9.69;58.69;99911.75;4911505;29;19931;-73
2020/12/31 12:13:14;;;;;;;;;;;;;;;9.74;57.72;99901.88;4916153;29;20487;-73
2020/12/31 12:15:41;;;;;;;;;;;;;;;9.77;57.89;99913.22;4920542;29;19938;-73
2020/12/31 12:18:08;;;;;;;;;;;;;;;9.72;58.00;99915.16;4920107;29;20007;-74
2020/12/31 12:20:36;;;;;;;;;;;;;;;9.67;58.23;99916.25;4901714;29;19932;-73
2020/12/31 12:23:03;;;;;;;;;;;;;;;9.67;58.23;99911.81;4899552;29;20006;-74
2020/12/31 12:25:30;;;;;;;;;;;;;;;9.64;58.64;99910.16;4920427;29;19927;-76
2020/12/31 12:27:59;;;;;;;;;;;;;;;9.58;58.44;99915.66;4897358;29;19956;-75
2020/12/31 12:30:26;;;;;;;;;;;;;;;9.52;58.74;99915.91;4923149;29;19963;-76
2020/12/31 12:32:56;;;;;;;;;;;;;;;9.51;58.75;99919.44;4923849;29;19935;-75
2020/12/31 12:35:23;;;;;;;;;;;;;;;9.55;56.81;99921.06;4915223;29;19931;-76
2020/12/31 12:37:50;;;;;;;;;;;;;;;9.46;58.54;99916.97;4898031;29;20375;-73
2020/12/31 12:40:17;;;;;;;;;;;;;;;9.27;57.56;99916.78;4918906;29;19931;-75
2020/12/31 12:42:45;;;;;;;;;;;;;;;9.14;55.84;99929.53;4921066;29;19990;-74
2020/12/31 12:45:13;;;;;;;;;;;;;;;9.26;57.70;99925.59;4916383;29;19935;-73
2020/12/31 12:47:40;;;;;;;;;;;;;;;8.85;58.75;99925.25;4913528;29;20500;-78
2020/12/31 12:50:08;;;;;;;;;;;;;;;8.91;58.16;99929.44;4906389;29;19967;-77
2020/12/31 12:52:36;;;;;;;;;;;;;;;9.30;56.26;99924.56;4914446;29;20019;-78
2020/12/31 12:55:04;;;;;;;;;;;;;;;9.45;56.66;99932.88;4920525;29;19927;-76
2020/12/31 12:57:31;;;;;;;;;;;;;;;9.60;55.39;99923.50;4921185;29;19938;-73
2020/12/31 12:59:58;;;;;;;;;;;;;;;10.20;57.01;99923.91;4922188;29;19927;-73
2020/12/31 13:02:27;;;;;;;;;;;;;;;10.45;55.76;99923.84;4922927;29;20559;-73
2020/12/31 13:04:53;;;;;;;;;;;;;;;10.67;55.34;99927.41;4922590;29;19938;-71
2020/12/31 13:07:20;;;;;;;;;;;;;;;10.85;54.02;99931.06;4918303;29;19990;-72